»·PEaware :: N6182G KSAN-KSBA

N6182G :: KSAN-KSBA

FLIGHT INFORMATION

Flight Status: Arrived
Operator: Privately registered:
United States
More flights under this callsign
Pilot: Paul A. (20189)
Aircraft: CESSNA 182 SKYLANE
(C182)
More flights by this aircraft type
Origin: KSAN San Diego Intl-Lindbergh
United States
Destination: KSBA Santa Barbara Mun
United States
More flights between these airports :: More routes between these airports
Route: OCN V23 LAX V299 VTU VTU282 KWANG
File this flight plan on PilotEdge
Remarks:
Altitude:
(Current/Filed)
6,000ft
Speed:
(Current/Filed)
120kts
Departed: 02-Oct-18 08:17 AM
Arrived: 02-Oct-18 09:34 AM
Distance/Time
Traveled:
167nm/1:16
Distance/Time
To Go:
Arrived

Flight Plot

Page will automatically refresh every two minutes.


Map Options




Map Legend


Flown Route
Filed Route
Departure Airport
Arrival Airport
Navaid (VOR, NDB)
Fix

Horizontal Profiles

Position Reports

Time Latitude Longitude Heading Altitude Ground
Speed
02-Oct-18 08:01 32.734570 -117.179520 14 18ft 0kts
02-Oct-18 08:02 32.734570 -117.179520 14 18ft 0kts
02-Oct-18 08:03 32.734570 -117.179520 14 18ft 0kts
02-Oct-18 08:04 32.734570 -117.179520 14 18ft 0kts
02-Oct-18 08:05 32.734571 -117.179520 14 18ft 0kts
02-Oct-18 08:06 32.734572 -117.179519 14 18ft 0kts
02-Oct-18 08:07 32.734573 -117.179519 14 18ft 0kts
02-Oct-18 08:08 32.734575 -117.179518 14 18ft 0kts
02-Oct-18 08:09 32.734576 -117.179518 14 18ft 0kts
02-Oct-18 08:10 32.734577 -117.179518 14 18ft 0kts
02-Oct-18 08:11 32.734578 -117.179517 14 18ft 0kts
02-Oct-18 08:12 32.734579 -117.179517 14 18ft 0kts
02-Oct-18 08:13 32.734580 -117.179517 14 18ft 0kts
02-Oct-18 08:14 32.734581 -117.179516 14 18ft 0kts
02-Oct-18 08:15 32.734582 -117.179516 14 18ft 0kts
02-Oct-18 08:16 32.732759 -117.179758 194 18ft 7kts
02-Oct-18 08:17 32.731552 -117.176621 106 18ft 15kts
02-Oct-18 08:18 32.730523 -117.175319 180 18ft 11kts
02-Oct-18 08:19 32.734792 -117.191935 311 515ft 81kts
02-Oct-18 08:20 32.754201 -117.211443 322 1399ft 106kts
02-Oct-18 08:21 32.779363 -117.234908 322 2336ft 120kts
02-Oct-18 08:22 32.805340 -117.259120 322 3287ft 115kts
02-Oct-18 08:23 32.831224 -117.282038 322 3990ft 130kts
02-Oct-18 08:24 32.865887 -117.304092 348 4143ft 141kts
02-Oct-18 08:25 32.900156 -117.312440 344 5123ft 114kts
02-Oct-18 08:26 32.929502 -117.321384 343 5969ft 116kts
02-Oct-18 08:27 32.966028 -117.332601 344 5980ft 144kts
02-Oct-18 08:28 33.005394 -117.344727 344 5973ft 147kts
02-Oct-18 08:29 33.045063 -117.356998 344 5974ft 147kts
02-Oct-18 08:30 33.084625 -117.369254 344 5975ft 147kts
02-Oct-18 08:31 33.124297 -117.381577 344 5973ft 147kts
02-Oct-18 08:32 33.163952 -117.393863 344 5969ft 148kts
02-Oct-18 08:33 33.203722 -117.406222 344 5972ft 147kts
02-Oct-18 08:34 33.242700 -117.420492 320 5966ft 147kts
02-Oct-18 08:35 33.272106 -117.453944 314 5981ft 146kts
02-Oct-18 08:36 33.301088 -117.488063 314 5995ft 145kts
02-Oct-18 08:37 33.330158 -117.522020 314 6000ft 146kts
02-Oct-18 08:38 33.359347 -117.556108 314 5999ft 146kts
02-Oct-18 08:39 33.388568 -117.590211 314 5998ft 146kts
02-Oct-18 08:40 33.417081 -117.623571 314 5995ft 146kts
02-Oct-18 08:41 33.446307 -117.657747 313 5991ft 147kts
02-Oct-18 08:42 33.475572 -117.692019 314 5988ft 147kts
02-Oct-18 08:43 33.504703 -117.726242 314 5986ft 147kts
02-Oct-18 08:44 33.533994 -117.760655 312 5983ft 147kts
02-Oct-18 08:45 33.563185 -117.795006 313 5976ft 147kts
02-Oct-18 08:46 33.591917 -117.828747 313 5980ft 147kts
02-Oct-18 08:47 33.620276 -117.862114 313 5970ft 146kts
02-Oct-18 08:48 33.649384 -117.896292 313 5969ft 146kts
02-Oct-18 08:49 33.678380 -117.930459 313 5971ft 145kts
02-Oct-18 08:50 33.706534 -117.963720 312 5971ft 146kts
02-Oct-18 08:51 33.735504 -117.997926 313 5970ft 145kts
02-Oct-18 08:52 33.764402 -118.032155 313 5970ft 145kts
02-Oct-18 08:53 33.787629 -118.070540 285 5971ft 143kts
02-Oct-18 08:54 33.799223 -118.116416 284 5970ft 143kts
02-Oct-18 08:55 33.810384 -118.160823 284 5984ft 142kts
02-Oct-18 08:56 33.821958 -118.206540 284 6001ft 143kts
02-Oct-18 08:57 33.833305 -118.251293 284 6002ft 143kts
02-Oct-18 08:58 33.843019 -118.289688 284 6003ft 144kts
02-Oct-18 08:59 33.856577 -118.343333 284 6007ft 143kts
02-Oct-18 09:00 33.883288 -118.379318 316 6012ft 147kts
02-Oct-18 09:01 33.909045 -118.406270 316 6009ft 147kts
02-Oct-18 09:02 33.939005 -118.449082 289 6013ft 143kts
02-Oct-18 09:03 33.950858 -118.486673 287 6016ft 143kts
02-Oct-18 09:04 33.965089 -118.531833 288 6001ft 144kts
02-Oct-18 09:05 33.981880 -118.584505 288 6000ft 144kts
02-Oct-18 09:06 33.993812 -118.622003 288 6001ft 144kts
02-Oct-18 09:07 34.008168 -118.667304 288 5999ft 145kts
02-Oct-18 09:08 34.022596 -118.712720 288 5997ft 145kts
02-Oct-18 09:09 34.037048 -118.758342 288 5996ft 145kts
02-Oct-18 09:10 34.050037 -118.804621 285 5995ft 145kts
02-Oct-18 09:11 34.062293 -118.851098 284 5994ft 145kts
02-Oct-18 09:12 34.074355 -118.896520 285 5994ft 146kts
02-Oct-18 09:13 34.086616 -118.942534 284 5994ft 146kts
02-Oct-18 09:14 34.099106 -118.989287 285 5997ft 146kts
02-Oct-18 09:15 34.111293 -119.035161 284 6004ft 146kts
02-Oct-18 09:16 34.127836 -119.080191 293 5999ft 147kts
02-Oct-18 09:17 34.146668 -119.124782 293 6000ft 150kts
02-Oct-18 09:18 34.165611 -119.169895 293 6001ft 151kts
02-Oct-18 09:19 34.184693 -119.215483 293 6000ft 151kts
02-Oct-18 09:20 34.203740 -119.260991 293 6000ft 152kts
02-Oct-18 09:21 34.222778 -119.306609 293 6002ft 152kts
02-Oct-18 09:22 34.241819 -119.352276 293 6003ft 152kts
02-Oct-18 09:23 34.260628 -119.397362 293 5991ft 139kts
02-Oct-18 09:24 34.277258 -119.437432 292 6017ft 136kts
02-Oct-18 09:25 34.294594 -119.479177 292 6009ft 140kts
02-Oct-18 09:26 34.312750 -119.520701 310 5382ft 140kts
02-Oct-18 09:27 34.343411 -119.542337 292 4704ft 133kts
02-Oct-18 09:28 34.358838 -119.583017 292 4028ft 131kts
02-Oct-18 09:29 34.371592 -119.623537 282 3854ft 126kts
02-Oct-18 09:30 34.379483 -119.663327 282 3222ft 117kts
02-Oct-18 09:31 34.388600 -119.700215 293 2638ft 115kts
02-Oct-18 09:32 34.402668 -119.732359 296 2306ft 107kts
02-Oct-18 09:33 34.416331 -119.762418 298 1703ft 96kts
02-Oct-18 09:34 34.426981 -119.791909 286 864ft 89kts
02-Oct-18 09:35 34.428122 -119.820145 267 281ft 86kts
02-Oct-18 09:36 34.427712 -119.844505 266 13ft 35kts
02-Oct-18 09:37 34.428887 -119.844466 64 13ft 19kts
02-Oct-18 09:38 34.430860 -119.839315 68 13ft 13kts
02-Oct-18 09:39 34.432066 -119.837251 15 13ft 0kts
02-Oct-18 09:40 34.432066 -119.837251 15 13ft 0kts
02-Oct-18 09:41 34.432066 -119.837251 15 13ft 0kts
02-Oct-18 09:42 34.432066 -119.837251 15 13ft 0kts
02-Oct-18 09:43 34.432066 -119.837251 15 13ft 0kts
02-Oct-18 09:44 34.432066 -119.837251 15 13ft 0kts
02-Oct-18 09:45 34.432066 -119.837251 15 13ft 0kts
02-Oct-18 09:46 34.432066 -119.837251 15 13ft 0kts
02-Oct-18 09:47 34.432066 -119.837251 15 13ft 0kts
02-Oct-18 09:48 34.432066 -119.837251 15 13ft 0kts
02-Oct-18 09:49 34.432066 -119.837251 15 13ft 0kts

Navigation Log

Ident Type
1. KSAN Airport
2. OCN Navaid
3. KELPS Fix
4. DANAH Fix
5. KRAUZ Fix
6. BALBO Fix
7. MIDDS Fix
8. SLI Navaid
9. POPPR Fix
10. HERMO Fix
11. LAX Navaid
12. SADDE Fix
13. VTU Navaid
14. KWANG Fix
15. KSBA Airport